Time;durP1;ratioP1;P1;durP2;ratioP2;P2;SDS_P1;SDS_P2;PMS_P1;PMS_P2;Temp;Humidity;BMP_temperature;BMP_pressure;BME280_temperature;BME280_humidity;BME280_pressure;Samples;Min_cycle;Max_cycle;Signal;HPM_P1;HPM_P2
2023/03/31 00:00:45;;;;;;;3.87;3.57;;;10.20;99.90;;;;;;5070569;28;20199;-78
2023/03/31 00:03:20;;;;;;;5.73;3.97;;;10.20;99.90;;;;;;5072851;28;20178;-80
2023/03/31 00:05:47;;;;;;;4.63;3.60;;;10.10;99.90;;;;;;5072155;28;20655;-77
2023/03/31 00:08:13;;;;;;;4.07;3.67;;;10.00;99.90;;;;;;5071435;28;20203;-77
2023/03/31 00:10:44;;;;;;;4.17;3.77;;;10.00;99.90;;;;;;5072544;28;20182;-78
2023/03/31 00:13:10;;;;;;;4.57;4.00;;;9.90;99.90;;;;;;5075737;28;20171;-76
2023/03/31 00:15:36;;;;;;;3.80;3.50;;;10.00;99.90;;;;;;5057440;28;20182;-77
2023/03/31 00:18:02;;;;;;;3.80;3.43;;;10.00;99.90;;;;;;5075307;28;20176;-78
2023/03/31 00:20:28;;;;;;;4.70;3.70;;;10.10;99.90;;;;;;5076665;28;20680;-78
2023/03/31 00:22:56;;;;;;;3.90;3.60;;;10.00;99.90;;;;;;5075276;28;20182;-76
2023/03/31 00:25:22;;;;;;;3.57;3.37;;;10.00;99.90;;;;;;5074715;28;20213;-78
2023/03/31 00:27:49;;;;;;;5.30;4.00;;;9.90;99.90;;;;;;5074899;28;20511;-79
2023/03/31 00:30:15;;;;;;;5.43;3.87;;;9.80;99.90;;;;;;5075288;28;20707;-77
2023/03/31 00:32:41;;;;;;;4.00;3.70;;;9.70;99.90;;;;;;5075014;28;20166;-75
2023/03/31 00:35:07;;;;;;;4.47;3.73;;;9.80;99.90;;;;;;5075338;28;20251;-76
2023/03/31 00:37:33;;;;;;;3.90;3.60;;;9.70;99.90;;;;;;5075051;28;20220;-78
2023/03/31 00:39:59;;;;;;;3.93;3.63;;;9.60;99.90;;;;;;5057973;28;20179;-77
2023/03/31 00:42:26;;;;;;;7.13;3.17;;;9.70;99.90;;;;;;5087366;28;20223;-76
2023/03/31 00:45:13;;;;;;;4.00;3.70;;;9.70;99.90;;;;;;5087843;28;20203;-77
2023/03/31 00:48:09;;;;;;;4.37;3.70;;;9.70;99.90;;;;;;5078910;28;20628;-77
2023/03/31 00:50:40;;;;;;;5.37;3.67;;;9.80;99.90;;;;;;5076963;28;20258;-78
2023/03/31 00:53:11;;;;;;;5.33;3.80;;;9.80;99.90;;;;;;5075290;28;20624;-77
2023/03/31 00:55:50;;;;;;;3.60;3.30;;;9.70;99.90;;;;;;5075389;28;20172;-77
2023/03/31 00:58:19;;;;;;;4.23;3.90;;;9.70;99.90;;;;;;5056507;28;20185;-78
2023/03/31 01:00:50;;;;;;;3.60;3.37;;;9.60;99.90;;;;;;5056936;28;20186;-77
2023/03/31 01:03:17;;;;;;;4.53;3.63;;;9.60;99.90;;;;;;5074742;28;20161;-79
2023/03/31 01:05:50;;;;;;;4.33;3.80;;;9.70;99.90;;;;;;5074445;28;20172;-76
2023/03/31 01:08:18;;;;;;;4.07;3.73;;;9.60;99.90;;;;;;5074233;28;20167;-77
2023/03/31 01:10:50;;;;;;;4.73;3.70;;;9.60;99.90;;;;;;5074490;28;20183;-77
2023/03/31 01:13:16;;;;;;;3.60;3.37;;;9.70;99.90;;;;;;5074044;28;20222;-78
2023/03/31 01:15:43;;;;;;;4.27;3.87;;;9.60;99.90;;;;;;5074654;28;20178;-76
2023/03/31 01:18:10;;;;;;;3.90;3.27;;;9.60;99.90;;;;;;5073926;28;20174;-76
2023/03/31 01:21:13;;;;;;;3.63;3.33;;;9.60;99.90;;;;;;5056336;28;20194;-76
2023/03/31 01:24:08;;;;;;;3.80;3.30;;;9.70;99.90;;;;;;5074012;28;20208;-77
2023/03/31 01:26:55;;;;;;;5.80;3.30;;;9.60;99.90;;;;;;4984935;28;20198;-76
2023/03/31 01:29:27;;;;;;;3.67;3.37;;;9.50;99.90;;;;;;5074032;28;20169;-75
2023/03/31 01:32:30;;;;;;;3.90;3.60;;;9.40;99.90;;;;;;5056169;28;20177;-75
2023/03/31 01:35:29;;;;;;;3.87;3.50;;;9.40;99.90;;;;;;5055825;28;20212;-76
2023/03/31 01:38:03;;;;;;;3.17;2.90;;;9.30;99.90;;;;;;5073653;28;20222;-79
2023/03/31 01:40:35;;;;;;;4.17;3.80;;;9.40;99.90;;;;;;5074100;28;20164;-76
2023/03/31 01:43:14;;;;;;;3.30;3.10;;;9.40;99.90;;;;;;5073743;28;20204;-76
2023/03/31 01:45:54;;;;;;;4.73;3.57;;;9.40;99.90;;;;;;5073971;28;20171;-76
2023/03/31 01:48:42;;;;;;;4.90;2.80;;;9.30;99.90;;;;;;5073589;28;20167;-77
2023/03/31 01:51:26;;;;;;;3.90;3.17;;;9.20;99.90;;;;;;5057840;28;20199;-77
2023/03/31 01:54:16;;;;;;;3.13;2.93;;;9.20;99.90;;;;;;5073215;28;20222;-76
2023/03/31 01:56:58;;;;;;;3.10;3.00;;;9.10;99.90;;;;;;5073330;28;20189;-75
2023/03/31 01:59:33;;;;;;;3.67;2.97;;;9.10;99.90;;;;;;5072855;28;20161;-76
2023/03/31 02:02:25;;;;;;;4.20;3.10;;;9.20;99.90;;;;;;5073996;28;20165;-77
2023/03/31 02:05:05;;;;;;;3.33;3.03;;;9.10;99.90;;;;;;5059922;28;20228;-76
2023/03/31 02:07:36;;;;;;;3.30;3.00;;;9.10;99.90;;;;;;5073892;28;20165;-78
2023/03/31 02:10:06;;;;;;;3.33;2.90;;;9.00;99.90;;;;;;5074720;28;20178;-78
2023/03/31 02:12:33;;;;;;;3.23;2.97;;;9.10;99.90;;;;;;5073410;28;20189;-77
2023/03/31 02:15:04;;;;;;;3.30;3.10;;;9.10;99.90;;;;;;5072828;28;20654;-76
2023/03/31 02:17:31;;;;;;;3.27;3.07;;;9.10;99.90;;;;;;5072755;28;20229;-77
2023/03/31 02:20:07;;;;;;;3.73;3.43;;;8.90;99.90;;;;;;5072748;28;20179;-76
2023/03/31 02:22:38;;;;;;;3.20;3.00;;;9.00;99.90;;;;;;5055180;28;20264;-79
2023/03/31 02:25:07;;;;;;;3.00;2.80;;;9.00;99.90;;;;;;5054841;28;20213;-76
2023/03/31 02:27:38;;;;;;;3.27;3.03;;;9.00;99.90;;;;;;5072898;28;20173;-78
2023/03/31 02:30:06;;;;;;;3.30;2.90;;;8.90;99.90;;;;;;5073435;28;20583;-77
2023/03/31 02:32:35;;;;;;;3.37;3.17;;;8.80;99.90;;;;;;5073155;28;20172;-77
2023/03/31 02:35:02;;;;;;;3.30;3.00;;;8.90;99.90;;;;;;5076995;28;20172;-76
2023/03/31 02:37:29;;;;;;;3.63;3.27;;;8.80;99.90;;;;;;5093795;28;20183;-77
2023/03/31 02:39:58;;;;;;;3.37;3.07;;;8.70;99.90;;;;;;5087370;28;20175;-76
2023/03/31 02:42:24;;;;;;;3.20;2.80;;;8.80;99.90;;;;;;5075196;28;20181;-78
2023/03/31 02:44:50;;;;;;;4.20;3.20;;;8.80;99.90;;;;;;5055924;28;20207;-75
2023/03/31 02:47:19;;;;;;;3.07;2.80;;;8.80;99.90;;;;;;5072517;28;20219;-77
2023/03/31 02:49:58;;;;;;;3.43;2.97;;;8.70;99.90;;;;;;5072902;28;20649;-74
2023/03/31 02:52:33;;;;;;;3.53;3.33;;;8.60;99.90;;;;;;5072655;28;20163;-76
2023/03/31 02:55:37;;;;;;;3.60;3.30;;;8.60;99.90;;;;;;5072163;28;20200;-76
2023/03/31 02:58:05;;;;;;;4.40;3.50;;;8.60;99.90;;;;;;5072352;28;20180;-76
2023/03/31 03:01:09;;;;;;;4.20;3.40;;;8.50;99.90;;;;;;5072380;28;20248;-75
2023/03/31 03:03:56;;;;;;;3.10;2.90;;;8.40;99.90;;;;;;5072539;28;20189;-76
2023/03/31 03:06:36;;;;;;;3.53;3.23;;;8.40;99.90;;;;;;5072741;28;20180;-77
2023/03/31 03:09:11;;;;;;;3.37;3.13;;;8.30;99.90;;;;;;5054551;28;20189;-75
2023/03/31 03:12:05;;;;;;;3.60;3.30;;;8.30;99.90;;;;;;5072923;28;20252;-77
2023/03/31 03:14:47;;;;;;;3.10;2.90;;;8.30;99.90;;;;;;5071752;28;20166;-76
2023/03/31 03:17:36;;;;;;;3.37;3.10;;;8.30;99.90;;;;;;5072620;28;20557;-77
2023/03/31 03:20:07;;;;;;;3.20;2.73;;;8.30;99.90;;;;;;5072163;28;20171;-77
2023/03/31 03:22:33;;;;;;;3.43;3.23;;;8.30;99.90;;;;;;5072660;28;20155;-78
2023/03/31 03:24:59;;;;;;;3.73;3.37;;;8.30;99.90;;;;;;5072250;28;20300;-79
2023/03/31 03:27:25;;;;;;;3.23;3.03;;;8.30;99.90;;;;;;5072056;28;20616;-76
2023/03/31 03:29:51;;;;;;;3.70;3.50;;;8.30;99.90;;;;;;5072317;28;20709;-78
2023/03/31 03:32:16;;;;;;;3.00;2.80;;;8.30;99.90;;;;;;5072062;28;20172;-77
2023/03/31 03:34:42;;;;;;;5.83;3.10;;;8.20;99.90;;;;;;5071866;28;20520;-76
2023/03/31 03:37:08;;;;;;;3.60;3.30;;;8.30;99.90;;;;;;5071618;28;20166;-76
2023/03/31 03:39:34;;;;;;;3.27;3.07;;;8.30;99.90;;;;;;5072028;28;20845;-76
2023/03/31 03:42:00;;;;;;;3.00;2.80;;;8.20;99.90;;;;;;5071979;28;20187;-76
2023/03/31 03:44:26;;;;;;;3.83;3.40;;;8.30;99.90;;;;;;5071738;28;20671;-76
2023/03/31 03:46:51;;;;;;;3.37;3.10;;;8.20;99.90;;;;;;5071525;28;20302;-76
2023/03/31 03:49:17;;;;;;;3.47;3.17;;;8.20;99.90;;;;;;5071757;28;20177;-76
2023/03/31 03:51:43;;;;;;;3.40;3.20;;;8.10;99.90;;;;;;5072079;28;20170;-75
2023/03/31 03:54:09;;;;;;;3.63;3.33;;;8.10;99.90;;;;;;5071569;28;20183;-76
2023/03/31 03:56:34;;;;;;;4.37;3.50;;;8.10;99.90;;;;;;5071384;28;20662;-76
2023/03/31 03:59:00;;;;;;;4.50;3.17;;;8.10;99.90;;;;;;5071742;28;20658;-77
2023/03/31 04:01:26;;;;;;;3.27;3.07;;;8.00;99.90;;;;;;5071800;28;20180;-77
2023/03/31 04:03:51;;;;;;;3.30;3.00;;;8.00;99.90;;;;;;5071515;28;20198;-79
2023/03/31 04:06:17;;;;;;;3.47;3.20;;;8.00;99.90;;;;;;5071620;28;20167;-77
2023/03/31 04:08:43;;;;;;;3.20;3.00;;;8.00;99.90;;;;;;5071479;28;20665;-78
2023/03/31 04:11:15;;;;;;;3.73;3.33;;;8.00;99.90;;;;;;5071819;28;20181;-77
2023/03/31 04:13:41;;;;;;;3.90;3.60;;;8.00;99.90;;;;;;5071626;28;20154;-78
2023/03/31 04:16:07;;;;;;;3.27;3.07;;;8.00;99.90;;;;;;5053000;28;20656;-77
2023/03/31 04:18:36;;;;;;;4.60;3.03;;;8.00;99.90;;;;;;5071467;28;20178;-77
2023/03/31 04:21:05;;;;;;;3.27;3.07;;;8.00;99.90;;;;;;5071549;28;20217;-77
2023/03/31 04:23:45;;;;;;;3.73;2.93;;;8.00;99.90;;;;;;5054962;28;20808;-76
2023/03/31 04:26:15;;;;;;;3.50;3.20;;;8.00;99.90;;;;;;5056171;28;20971;-78
2023/03/31 04:28:45;;;;;;;3.47;3.20;;;8.00;99.90;;;;;;5065757;28;20190;-76
2023/03/31 04:31:15;;;;;;;3.40;3.20;;;7.90;99.90;;;;;;5081335;28;20167;-76
2023/03/31 04:33:45;;;;;;;3.50;3.20;;;7.80;99.90;;;;;;5073632;28;20186;-76
2023/03/31 04:36:16;;;;;;;6.03;3.90;;;7.80;99.90;;;;;;5073135;28;20185;-77
2023/03/31 04:38:46;;;;;;;3.77;3.17;;;7.80;99.90;;;;;;5072087;28;20179;-77
2023/03/31 04:41:13;;;;;;;3.17;2.97;;;7.70;99.90;;;;;;5071327;28;20186;-77
2023/03/31 04:43:39;;;;;;;3.67;3.37;;;7.70;99.90;;;;;;5075245;28;20207;-76
2023/03/31 04:46:05;;;;;;;3.67;3.20;;;7.70;99.90;;;;;;5084211;28;20228;-74
2023/03/31 04:48:30;;;;;;;3.37;2.90;;;7.70;99.90;;;;;;5091506;28;20193;-78
2023/03/31 04:50:56;;;;;;;6.13;3.00;;;7.70;99.90;;;;;;5092227;28;20189;-76
2023/03/31 04:53:22;;;;;;;3.20;2.90;;;7.70;99.90;;;;;;5073428;28;20217;-76
2023/03/31 04:55:48;;;;;;;3.17;2.90;;;7.70;99.90;;;;;;5091083;28;20229;-76
2023/03/31 04:58:14;;;;;;;3.57;3.13;;;7.80;99.90;;;;;;5093976;28;20169;-78
2023/03/31 05:00:41;;;;;;;3.03;2.83;;;7.90;99.90;;;;;;5094908;28;20180;-76
2023/03/31 05:03:07;;;;;;;3.07;2.83;;;8.00;99.90;;;;;;5095006;28;20178;-77
2023/03/31 05:05:33;;;;;;;3.53;3.33;;;7.90;99.90;;;;;;5094865;28;20293;-77
2023/03/31 05:07:59;;;;;;;4.80;3.40;;;8.00;99.90;;;;;;5094619;28;20260;-77
2023/03/31 05:10:24;;;;;;;3.20;3.00;;;8.00;99.90;;;;;;5094933;28;20171;-76
2023/03/31 05:12:50;;;;;;;3.60;3.33;;;8.10;99.90;;;;;;5094861;28;20170;-77
2023/03/31 05:15:16;;;;;;;4.43;3.30;;;8.10;99.90;;;;;;5094641;28;20177;-76
2023/03/31 05:17:42;;;;;;;3.63;3.30;;;8.10;99.90;;;;;;5094116;28;20189;-76
2023/03/31 05:20:08;;;;;;;3.70;3.40;;;8.20;99.90;;;;;;5094710;28;20175;-76
2023/03/31 05:22:36;;;;;;;6.07;3.40;;;8.10;99.90;;;;;;5094467;28;20188;-76
2023/03/31 05:25:03;;;;;;;3.90;3.60;;;8.20;99.90;;;;;;5094729;28;20231;-78
2023/03/31 05:27:30;;;;;;;4.30;3.90;;;8.10;99.90;;;;;;5094205;28;20645;-77
2023/03/31 05:29:57;;;;;;;3.80;3.50;;;8.30;99.90;;;;;;5094533;28;20173;-77
2023/03/31 05:32:23;;;;;;;4.30;3.90;;;8.20;99.90;;;;;;5094527;28;20189;-77
2023/03/31 05:34:51;;;;;;;4.60;4.20;;;8.30;99.90;;;;;;5093729;28;20896;-77
2023/03/31 05:37:18;;;;;;;4.07;3.67;;;8.30;99.90;;;;;;5093233;28;20176;-75
2023/03/31 05:39:44;;;;;;;4.80;4.30;;;8.40;99.90;;;;;;5093860;28;20225;-75
2023/03/31 05:42:10;;;;;;;4.23;3.83;;;8.40;99.90;;;;;;5093674;28;20182;-77
2023/03/31 05:44:36;;;;;;;4.93;4.43;;;8.30;99.90;;;;;;5093786;28;20208;-76
2023/03/31 05:47:02;;;;;;;4.53;4.13;;;8.30;99.90;;;;;;5093714;28;20224;-76
2023/03/31 05:49:27;;;;;;;4.03;3.77;;;8.30;99.90;;;;;;5094081;28;20176;-78
2023/03/31 05:51:53;;;;;;;4.63;3.90;;;8.20;99.90;;;;;;5094313;28;20175;-77
2023/03/31 05:54:19;;;;;;;3.70;3.50;;;8.20;99.90;;;;;;5094256;28;20184;-77
2023/03/31 05:56:45;;;;;;;4.27;3.50;;;8.30;99.90;;;;;;5093609;28;20256;-77
2023/03/31 05:59:11;;;;;;;6.10;3.77;;;8.40;99.90;;;;;;5093687;28;20536;-77
2023/03/31 06:01:36;;;;;;;4.27;3.60;;;8.40;99.90;;;;;;5094125;28;20174;-78
2023/03/31 06:04:02;;;;;;;5.60;3.97;;;8.40;99.90;;;;;;5072896;28;20204;-77
2023/03/31 06:06:28;;;;;;;4.43;4.03;;;8.40;99.90;;;;;;5093816;28;20215;-76
2023/03/31 06:08:54;;;;;;;4.47;4.07;;;8.40;99.90;;;;;;5075318;28;20189;-78
2023/03/31 06:11:21;;;;;;;4.20;3.90;;;8.50;99.90;;;;;;5075775;28;20184;-77
2023/03/31 06:13:48;;;;;;;5.27;4.00;;;8.60;99.90;;;;;;5093891;28;20172;-77
2023/03/31 06:16:16;;;;;;;6.53;4.10;;;8.60;99.90;;;;;;5075245;28;20276;-76
2023/03/31 06:18:42;;;;;;;6.27;4.50;;;8.50;99.90;;;;;;5092947;28;20169;-78
2023/03/31 06:21:13;;;;;;;5.63;4.33;;;8.50;99.90;;;;;;5093132;28;20534;-75
2023/03/31 06:23:39;;;;;;;8.70;3.70;;;8.40;99.90;;;;;;5075722;28;20571;-78
2023/03/31 06:26:07;;;;;;;6.23;4.73;;;8.30;99.90;;;;;;5093676;28;20174;-77
2023/03/31 06:28:34;;;;;;;4.30;4.00;;;8.30;99.90;;;;;;5093169;28;20168;-76
2023/03/31 06:31:08;;;;;;;6.27;3.90;;;8.30;99.90;;;;;;5093640;28;20184;-76
2023/03/31 06:33:35;;;;;;;3.80;3.50;;;8.40;99.90;;;;;;5093373;28;20202;-75
2023/03/31 06:36:04;;;;;;;3.37;3.17;;;8.40;99.90;;;;;;5093196;28;20222;-78
2023/03/31 06:38:30;;;;;;;4.00;3.70;;;8.50;99.90;;;;;;5092653;28;20673;-76
2023/03/31 06:40:56;;;;;;;4.13;3.73;;;8.50;99.90;;;;;;5074763;28;20182;-76
2023/03/31 06:43:22;;;;;;;4.17;3.77;;;8.50;99.90;;;;;;5092888;28;20188;-78
2023/03/31 06:45:48;;;;;;;3.80;3.50;;;8.50;99.90;;;;;;5074694;28;20642;-75
2023/03/31 06:48:14;;;;;;;5.33;3.73;;;8.70;99.90;;;;;;5093020;28;20283;-77
2023/03/31 06:50:41;;;;;;;5.53;4.20;;;8.80;99.90;;;;;;5093115;28;20273;-77
2023/03/31 06:53:10;;;;;;;4.97;4.43;;;8.90;99.90;;;;;;5074381;28;20606;-76
2023/03/31 06:55:36;;;;;;;4.97;4.40;;;9.00;99.90;;;;;;5092441;28;20284;-76
2023/03/31 06:58:03;;;;;;;4.47;4.17;;;9.10;99.90;;;;;;5092232;28;20185;-76
2023/03/31 07:00:28;;;;;;;5.00;4.60;;;9.10;99.90;;;;;;5092340;28;20207;-76
2023/03/31 07:02:54;;;;;;;4.70;4.30;;;9.20;99.90;;;;;;5092390;28;20260;-78
2023/03/31 07:05:26;;;;;;;5.17;4.80;;;9.20;99.90;;;;;;5092715;28;20225;-77
2023/03/31 07:07:53;;;;;;;5.07;4.40;;;9.40;99.90;;;;;;5092554;28;20516;-77
2023/03/31 07:10:18;;;;;;;5.87;4.90;;;9.50;99.90;;;;;;5092658;28;20185;-77
2023/03/31 07:12:44;;;;;;;4.57;4.27;;;9.70;99.90;;;;;;5092381;28;20178;-79
2023/03/31 07:15:10;;;;;;;5.20;4.67;;;9.80;99.90;;;;;;5074287;28;20190;-78
2023/03/31 07:17:42;;;;;;;4.90;4.37;;;10.10;99.90;;;;;;5092001;28;20185;-78
2023/03/31 07:20:16;;;;;;;5.83;4.27;;;10.40;99.90;;;;;;5091729;28;20243;-79
2023/03/31 07:22:43;;;;;;;4.57;4.27;;;10.70;99.90;;;;;;5092834;28;20172;-79
2023/03/31 07:25:10;;;;;;;5.00;4.60;;;11.00;99.90;;;;;;5092964;28;20294;-79
2023/03/31 07:27:36;;;;;;;4.67;4.27;;;11.20;99.90;;;;;;5091957;28;20178;-79
2023/03/31 07:30:04;;;;;;;4.53;4.23;;;11.50;99.90;;;;;;5091256;28;20179;-78
2023/03/31 07:32:29;;;;;;;4.30;4.00;;;11.80;99.90;;;;;;5092276;28;20261;-79
2023/03/31 07:34:55;;;;;;;4.47;4.10;;;11.90;99.90;;;;;;5092033;28;20257;-78
2023/03/31 07:37:21;;;;;;;5.27;4.77;;;12.00;99.90;;;;;;5092604;28;20212;-81
2023/03/31 07:39:47;;;;;;;5.13;4.27;;;12.10;99.90;;;;;;5095121;28;20228;-79
2023/03/31 07:42:12;;;;;;;6.20;4.10;;;12.20;99.90;;;;;;5092268;28;20575;-78
2023/03/31 07:44:38;;;;;;;4.80;4.40;;;12.30;99.90;;;;;;5094050;28;20688;-78
2023/03/31 07:47:05;;;;;;;4.83;4.37;;;12.40;99.90;;;;;;5091830;28;20577;-77
2023/03/31 07:49:34;;;;;;;5.03;4.40;;;12.40;99.90;;;;;;5091930;28;20174;-78
2023/03/31 07:52:00;;;;;;;4.47;4.07;;;12.60;99.90;;;;;;5091528;28;20692;-77
2023/03/31 07:54:28;;;;;;;7.03;4.87;;;12.90;99.90;;;;;;5074105;28;20178;-78
2023/03/31 07:56:53;;;;;;;8.33;5.07;;;13.00;99.90;;;;;;5092559;28;20173;-78
2023/03/31 07:59:20;;;;;;;7.73;5.23;;;13.20;99.90;;;;;;5091484;28;20181;-77
2023/03/31 08:01:46;;;;;;;6.30;4.63;;;13.40;99.90;;;;;;5091660;28;20159;-78
2023/03/31 08:04:12;;;;;;;5.03;4.63;;;13.60;99.90;;;;;;5091689;28;20205;-77
2023/03/31 08:06:39;;;;;;;4.50;4.10;;;13.60;99.90;;;;;;5091836;28;20173;-79
2023/03/31 08:09:06;;;;;;;5.13;4.57;;;13.60;99.90;;;;;;5091783;28;20693;-79
2023/03/31 08:11:33;;;;;;;4.20;3.80;;;13.80;99.90;;;;;;5091764;28;20185;-77
2023/03/31 08:13:59;;;;;;;3.57;3.37;;;13.90;99.90;;;;;;5091771;28;20177;-78
2023/03/31 08:16:25;;;;;;;4.50;4.20;;;13.80;99.90;;;;;;5091681;28;20163;-78
2023/03/31 08:18:50;;;;;;;4.10;3.80;;;13.90;99.90;;;;;;5091259;28;20243;-81
2023/03/31 08:21:16;;;;;;;3.60;3.27;;;13.90;99.90;;;;;;5073420;28;20182;-78
2023/03/31 08:23:42;;;;;;;3.57;3.23;;;13.80;99.90;;;;;;5091517;28;20200;-78
2023/03/31 08:26:20;;;;;;;4.20;3.13;;;13.90;99.90;;;;;;5091998;28;20312;-78
2023/03/31 08:28:48;;;;;;;3.60;3.30;;;14.10;99.90;;;;;;5092103;28;20159;-77
2023/03/31 08:31:15;;;;;;;4.03;2.87;;;14.20;99.90;;;;;;5073878;28;20519;-77
2023/03/31 08:33:41;;;;;;;4.07;3.10;;;14.30;99.90;;;;;;5095667;28;20178;-79
2023/03/31 08:36:09;;;;;;;3.93;3.07;;;14.30;99.90;;;;;;5095329;28;20658;-77
2023/03/31 08:38:45;;;;;;;3.07;2.50;;;14.40;99.90;;;;;;5094968;28;20159;-78
2023/03/31 08:41:47;;;;;;;3.10;2.90;;;14.50;99.90;;;;;;5094797;28;20204;-80
2023/03/31 08:44:34;;;;;;;2.93;2.73;;;14.60;99.90;;;;;;5095831;28;20198;-76
2023/03/31 08:47:02;;;;;;;3.13;2.50;;;14.70;99.90;;;;;;5095192;28;20265;-78
2023/03/31 08:49:35;;;;;;;2.90;2.80;;;14.80;99.90;;;;;;5077023;28;20210;-78
2023/03/31 08:52:06;;;;;;;4.10;2.80;;;14.90;99.90;;;;;;5095190;28;20166;-78
2023/03/31 08:54:48;;;;;;;3.97;3.30;;;15.10;99.60;;;;;;5095007;28;20938;-76
2023/03/31 08:57:27;;;;;;;3.77;2.97;;;15.20;99.40;;;;;;5094833;28;20200;-79
2023/03/31 08:59:57;;;;;;;2.97;2.87;;;15.40;99.20;;;;;;5095026;28;20202;-79
2023/03/31 09:02:39;;;;;;;4.37;3.37;;;15.50;98.80;;;;;;5094651;28;20225;-78
2023/03/31 09:05:21;;;;;;;4.63;2.90;;;15.60;98.40;;;;;;5094970;28;20215;-78
2023/03/31 09:08:10;;;;;;;3.60;3.07;;;15.70;98.80;;;;;;5093578;28;20219;-77
2023/03/31 09:10:53;;;;;;;4.03;2.80;;;15.80;98.70;;;;;;5075813;28;20169;-78
2023/03/31 09:13:38;;;;;;;2.97;2.77;;;15.70;98.20;;;;;;5095146;28;20285;-77
2023/03/31 09:16:09;;;;;;;2.77;2.57;;;15.50;98.00;;;;;;5095351;28;20231;-81
2023/03/31 09:18:37;;;;;;;3.83;2.80;;;15.40;97.70;;;;;;5094621;28;20222;-79
2023/03/31 09:21:30;;;;;;;2.57;2.30;;;15.30;97.90;;;;;;5094527;28;20177;-78
2023/03/31 09:24:19;;;;;;;2.90;2.70;;;15.30;97.80;;;;;;5094328;28;20689;-77
2023/03/31 09:26:54;;;;;;;3.10;2.13;;;15.50;97.40;;;;;;5094967;28;20167;-78
2023/03/31 09:29:28;;;;;;;2.40;2.30;;;15.50;97.30;;;;;;5096230;28;20697;-78
2023/03/31 09:32:00;;;;;;;2.73;2.00;;;15.40;97.20;;;;;;5076976;28;20211;-78
2023/03/31 09:34:31;;;;;;;1.87;1.83;;;15.50;97.10;;;;;;5094721;28;20187;-77
2023/03/31 09:36:56;;;;;;;2.10;1.90;;;15.70;97.60;;;;;;5094162;28;20177;-77
2023/03/31 09:39:22;;;;;;;2.50;2.13;;;15.80;97.30;;;;;;5093667;28;20586;-77
2023/03/31 09:41:51;;;;;;;2.53;2.33;;;15.90;96.60;;;;;;5094129;28;20509;-80
2023/03/31 09:44:39;;;;;;;1.97;1.90;;;15.90;96.20;;;;;;5093800;28;20233;-77
2023/03/31 09:47:10;;;;;;;2.07;1.97;;;16.00;96.00;;;;;;5093869;28;20610;-77
2023/03/31 09:49:36;;;;;;;2.17;2.10;;;16.00;96.40;;;;;;5076573;28;20587;-78
2023/03/31 09:52:22;;;;;;;1.97;1.87;;;16.10;96.80;;;;;;5094373;28;20170;-78
2023/03/31 09:54:50;;;;;;;2.33;2.13;;;16.20;96.70;;;;;;5094347;28;20165;-77
2023/03/31 09:57:32;;;;;;;2.50;2.30;;;16.40;96.60;;;;;;5075569;28;20170;-78
2023/03/31 10:00:19;;;;;;;2.03;1.90;;;16.60;96.30;;;;;;5093867;28;20170;-77
2023/03/31 10:03:06;;;;;;;2.27;1.63;;;16.80;96.00;;;;;;5093267;28;20193;-78
2023/03/31 10:05:35;;;;;;;1.80;1.67;;;17.00;96.00;;;;;;5093356;28;20202;-77
2023/03/31 10:08:16;;;;;;;1.93;1.83;;;17.20;96.00;;;;;;5093571;28;20187;-77
2023/03/31 10:10:52;;;;;;;1.70;1.60;;;17.50;96.20;;;;;;5093494;28;20281;-77
2023/03/31 10:13:34;;;;;;;1.70;1.60;;;17.60;96.30;;;;;;5093588;28;20162;-77
2023/03/31 10:16:07;;;;;;;1.63;1.63;;;17.60;96.00;;;;;;5093380;28;20211;-78
2023/03/31 10:18:39;;;;;;;1.70;1.60;;;17.70;95.70;;;;;;5094592;28;20171;-77
2023/03/31 10:21:15;;;;;;;1.67;1.50;;;17.50;95.70;;;;;;5093381;28;20179;-76
2023/03/31 10:23:46;;;;;;;1.80;1.70;;;17.20;95.80;;;;;;5092880;28;20166;-78
2023/03/31 10:26:22;;;;;;;2.20;2.10;;;17.00;95.90;;;;;;5075321;28;20197;-78
2023/03/31 10:28:51;;;;;;;1.90;1.80;;;16.70;96.20;;;;;;5075141;28;20170;-78
2023/03/31 10:31:18;;;;;;;2.23;2.10;;;16.50;96.40;;;;;;5075557;28;20186;-79
2023/03/31 10:33:48;;;;;;;1.90;1.80;;;16.50;96.60;;;;;;5093447;28;20163;-78
2023/03/31 10:36:18;;;;;;;1.70;1.60;;;16.40;96.40;;;;;;5093302;28;20166;-77
2023/03/31 10:38:47;;;;;;;2.50;1.90;;;16.30;96.60;;;;;;5092630;28;20178;-77
2023/03/31 10:41:18;;;;;;;2.00;1.63;;;16.20;96.60;;;;;;5092693;28;20174;-80
2023/03/31 10:43:56;;;;;;;2.00;1.90;;;16.00;96.50;;;;;;5092359;28;20165;-78
2023/03/31 10:46:47;;;;;;;1.90;1.80;;;15.80;96.90;;;;;;5092955;28;20617;-78
2023/03/31 10:49:25;;;;;;;2.10;1.70;;;15.80;97.10;;;;;;5095055;28;20165;-78
2023/03/31 10:51:54;;;;;;;2.17;2.07;;;15.80;97.30;;;;;;5094467;28;20521;-77
2023/03/31 10:54:20;;;;;;;1.70;1.60;;;15.80;97.20;;;;;;5073765;28;20265;-77
2023/03/31 10:57:05;;;;;;;1.90;1.80;;;15.80;97.00;;;;;;5092972;28;20273;-76
2023/03/31 10:59:52;;;;;;;2.70;2.50;;;15.80;97.20;;;;;;5092508;28;20155;-79
2023/03/31 11:02:27;;;;;;;3.13;2.17;;;15.80;97.30;;;;;;5093395;28;20183;-78
2023/03/31 11:04:55;;;;;;;4.63;2.10;;;15.80;97.20;;;;;;5092601;28;20204;-77
2023/03/31 11:07:28;;;;;;;2.33;2.13;;;15.80;97.00;;;;;;5092262;28;20661;-78
2023/03/31 11:10:18;;;;;;;1.90;1.67;;;16.00;97.10;;;;;;5092850;28;20234;-77
2023/03/31 11:12:57;;;;;;;1.80;1.70;;;16.10;96.70;;;;;;5074603;28;20268;-78
2023/03/31 11:15:38;;;;;;;1.93;1.80;;;16.40;97.00;;;;;;5092627;28;20158;-77
2023/03/31 11:18:21;;;;;;;2.03;1.93;;;16.60;96.70;;;;;;5092176;28;20170;-78
2023/03/31 11:21:06;;;;;;;1.90;1.80;;;16.80;96.50;;;;;;5093147;28;20154;-79
2023/03/31 11:23:48;;;;;;;2.73;1.70;;;17.10;96.20;;;;;;5097045;28;20197;-80
2023/03/31 11:26:42;;;;;;;3.70;1.50;;;17.30;95.90;;;;;;5089184;28;20194;-80
2023/03/31 11:29:41;;;;;;;1.97;1.87;;;17.50;93.70;;;;;;5092099;28;20192;-78
2023/03/31 11:32:27;;;;;;;1.47;1.30;;;17.70;93.30;;;;;;5087125;28;20224;-78
2023/03/31 11:34:56;;;;;;;1.20;1.20;;;17.90;92.60;;;;;;5092117;28;20220;-78
2023/03/31 11:37:44;;;;;;;1.30;1.30;;;17.90;92.40;;;;;;5091473;28;20181;-78
2023/03/31 11:40:34;;;;;;;1.30;1.20;;;18.00;92.30;;;;;;5091711;28;20280;-77
2023/03/31 11:43:06;;;;;;;1.43;1.43;;;18.00;92.30;;;;;;5092729;28;20187;-78
2023/03/31 11:45:44;;;;;;;1.00;1.00;;;17.90;91.70;;;;;;5093171;28;20216;-77
2023/03/31 11:48:21;;;;;;;1.33;1.13;;;17.70;91.50;;;;;;5092578;28;20182;-78
2023/03/31 11:50:48;;;;;;;1.27;1.17;;;17.60;91.50;;;;;;5092468;28;20166;-80
2023/03/31 11:53:19;;;;;;;0.90;0.90;;;17.60;91.70;;;;;;5091955;28;20872;-77
2023/03/31 11:55:49;;;;;;;1.23;1.13;;;17.60;91.50;;;;;;5092107;28;20162;-78
2023/03/31 11:58:31;;;;;;;1.63;1.10;;;17.60;91.70;;;;;;5091694;28;20539;-77
2023/03/31 12:01:05;;;;;;;1.07;1.07;;;17.40;91.50;;;;;;5093585;28;20158;-78
2023/03/31 12:03:41;;;;;;;1.47;1.20;;;17.40;91.60;;;;;;5091496;28;20180;-78
2023/03/31 12:06:18;;;;;;;1.40;1.30;;;17.40;91.70;;;;;;5093628;28;20173;-79
2023/03/31 12:08:56;;;;;;;1.57;1.47;;;17.50;91.80;;;;;;5094552;28;20173;-79
2023/03/31 12:12:00;;;;;;;1.10;1.10;;;17.70;91.50;;;;;;5095828;28;20158;-80
2023/03/31 12:14:47;;;;;;;1.23;1.20;;;17.90;91.40;;;;;;5071389;28;20296;-77
2023/03/31 12:17:17;;;;;;;1.40;1.30;;;18.00;91.50;;;;;;5095408;28;20184;-81
2023/03/31 12:19:55;;;;;;;1.37;1.23;;;18.10;92.20;;;;;;5095538;28;20196;-77
2023/03/31 12:22:28;;;;;;;1.50;1.50;;;18.20;92.30;;;;;;5098931;28;20193;-81
2023/03/31 12:24:54;;;;;;;1.70;1.60;;;18.20;92.40;;;;;;5097435;28;20699;-77
2023/03/31 12:27:40;;;;;;;1.60;1.50;;;18.20;92.50;;;;;;5095430;28;20175;-77
2023/03/31 12:30:09;;;;;;;1.80;1.70;;;18.10;92.60;;;;;;5095772;28;20638;-79
2023/03/31 12:33:01;;;;;;;2.70;1.60;;;18.10;92.70;;;;;;5099892;28;20228;-79
2023/03/31 12:35:48;;;;;;;1.30;1.30;;;18.00;92.60;;;;;;5098796;28;20183;-79
2023/03/31 12:38:25;;;;;;;1.30;1.30;;;18.10;92.30;;;;;;5095511;28;20250;-78
2023/03/31 12:41:17;;;;;;;1.90;1.80;;;18.00;91.90;;;;;;5097457;28;20167;-77
2023/03/31 12:44:34;;;;;;;1.53;1.50;;;18.20;92.20;;;;;;5102073;28;20186;-78
2023/03/31 12:47:16;;;;;;;3.57;1.30;;;18.20;92.30;;;;;;5065159;28;20226;-78
2023/03/31 12:50:17;;;;;;;2.77;1.40;;;18.20;92.00;;;;;;5095423;28;20764;-77
2023/03/31 12:52:51;;;;;;;1.97;1.47;;;18.20;92.10;;;;;;5056199;28;20182;-76
2023/03/31 12:55:30;;;;;;;1.53;1.43;;;18.10;92.10;;;;;;5076661;28;20170;-78
2023/03/31 12:58:23;;;;;;;1.50;1.40;;;18.20;91.60;;;;;;5076634;28;20247;-78
2023/03/31 13:01:09;;;;;;;1.40;1.40;;;18.30;91.80;;;;;;5095479;28;20170;-78
2023/03/31 13:03:35;;;;;;;1.70;1.33;;;18.70;91.50;;;;;;5094921;28;20171;-79
2023/03/31 13:06:04;;;;;;;1.57;1.57;;;18.80;90.70;;;;;;5076965;28;20672;-79
2023/03/31 13:08:54;;;;;;;2.27;1.50;;;18.80;90.40;;;;;;5077272;28;20174;-78
2023/03/31 13:11:32;;;;;;;1.10;1.10;;;18.80;90.60;;;;;;5095741;28;20166;-78
2023/03/31 13:14:11;;;;;;;1.30;1.20;;;18.80;90.80;;;;;;5096049;28;20174;-78
2023/03/31 13:16:37;;;;;;;1.20;1.20;;;18.80;90.50;;;;;;5060370;28;20178;-77
2023/03/31 13:19:04;;;;;;;1.93;1.30;;;18.80;90.50;;;;;;5093418;28;20669;-78
2023/03/31 13:21:30;;;;;;;1.23;1.23;;;19.00;90.90;;;;;;5094467;28;20257;-79